sensor_id;sensor_type;location;lat;lon;timestamp;temperature;humidity
32660;DHT22;19064;47.912;12.308;2023-08-24T00:01:20;21.90;99.90
32660;DHT22;19064;47.912;12.308;2023-08-24T00:03:47;21.80;99.90
32660;DHT22;19064;47.912;12.308;2023-08-24T00:06:14;21.80;99.90
32660;DHT22;19064;47.912;12.308;2023-08-24T00:08:42;21.90;99.90
32660;DHT22;19064;47.912;12.308;2023-08-24T00:11:09;22.00;99.90
32660;DHT22;19064;47.912;12.308;2023-08-24T00:13:40;21.90;99.90
32660;DHT22;19064;47.912;12.308;2023-08-24T00:16:08;21.90;99.90
32660;DHT22;19064;47.912;12.308;2023-08-24T00:18:35;21.90;99.90
32660;DHT22;19064;47.912;12.308;2023-08-24T00:21:02;21.80;99.90
32660;DHT22;19064;47.912;12.308;2023-08-24T00:23:28;21.90;99.90
32660;DHT22;19064;47.912;12.308;2023-08-24T00:25:56;21.80;99.90
32660;DHT22;19064;47.912;12.308;2023-08-24T00:28:25;21.80;99.90
32660;DHT22;19064;47.912;12.308;2023-08-24T00:30:52;21.70;99.90
32660;DHT22;19064;47.912;12.308;2023-08-24T00:33:20;21.70;99.90
32660;DHT22;19064;47.912;12.308;2023-08-24T00:35:47;21.60;99.90
32660;DHT22;19064;47.912;12.308;2023-08-24T00:38:14;21.60;99.90
32660;DHT22;19064;47.912;12.308;2023-08-24T00:40:41;21.60;99.90
32660;DHT22;19064;47.912;12.308;2023-08-24T00:43:09;21.60;99.90
32660;DHT22;19064;47.912;12.308;2023-08-24T00:45:36;21.50;99.90
32660;DHT22;19064;47.912;12.308;2023-08-24T00:48:04;21.50;99.90
32660;DHT22;19064;47.912;12.308;2023-08-24T00:50:32;21.40;99.90
32660;DHT22;19064;47.912;12.308;2023-08-24T00:52:58;21.30;99.90
32660;DHT22;19064;47.912;12.308;2023-08-24T00:55:25;21.30;99.90
32660;DHT22;19064;47.912;12.308;2023-08-24T00:57:52;21.30;99.90
32660;DHT22;19064;47.912;12.308;2023-08-24T01:00:19;21.30;99.90
32660;DHT22;19064;47.912;12.308;2023-08-24T01:02:46;21.20;99.90
32660;DHT22;19064;47.912;12.308;2023-08-24T01:05:13;21.20;99.90
32660;DHT22;19064;47.912;12.308;2023-08-24T01:07:41;21.20;99.90
32660;DHT22;19064;47.912;12.308;2023-08-24T01:10:09;21.20;99.90
32660;DHT22;19064;47.912;12.308;2023-08-24T01:12:47;21.10;99.90
32660;DHT22;19064;47.912;12.308;2023-08-24T01:15:19;21.10;99.90
32660;DHT22;19064;47.912;12.308;2023-08-24T01:17:47;21.00;99.90
32660;DHT22;19064;47.912;12.308;2023-08-24T01:20:17;21.10;99.90
32660;DHT22;19064;47.912;12.308;2023-08-24T01:22:49;21.10;99.90
32660;DHT22;19064;47.912;12.308;2023-08-24T01:25:24;21.10;99.90
32660;DHT22;19064;47.912;12.308;2023-08-24T01:27:59;21.00;99.90
32660;DHT22;19064;47.912;12.308;2023-08-24T01:30:26;21.00;99.90
32660;DHT22;19064;47.912;12.308;2023-08-24T01:32:53;21.00;99.90
32660;DHT22;19064;47.912;12.308;2023-08-24T01:35:20;21.00;99.90
32660;DHT22;19064;47.912;12.308;2023-08-24T01:37:46;21.00;99.90
32660;DHT22;19064;47.912;12.308;2023-08-24T01:40:17;21.00;99.90
32660;DHT22;19064;47.912;12.308;2023-08-24T01:42:49;20.90;99.90
32660;DHT22;19064;47.912;12.308;2023-08-24T01:45:19;20.90;99.90
32660;DHT22;19064;47.912;12.308;2023-08-24T01:47:47;21.00;99.90
32660;DHT22;19064;47.912;12.308;2023-08-24T01:50:15;20.90;99.90
32660;DHT22;19064;47.912;12.308;2023-08-24T01:52:42;21.00;99.90
32660;DHT22;19064;47.912;12.308;2023-08-24T01:55:10;21.00;99.90
32660;DHT22;19064;47.912;12.308;2023-08-24T01:57:37;21.10;99.90
32660;DHT22;19064;47.912;12.308;2023-08-24T02:00:05;21.00;99.90
32660;DHT22;19064;47.912;12.308;2023-08-24T02:02:36;21.10;99.90
32660;DHT22;19064;47.912;12.308;2023-08-24T02:05:03;21.00;99.90
32660;DHT22;19064;47.912;12.308;2023-08-24T02:07:30;20.90;99.90
32660;DHT22;19064;47.912;12.308;2023-08-24T02:09:57;20.80;99.90
32660;DHT22;19064;47.912;12.308;2023-08-24T02:12:23;20.70;99.90
32660;DHT22;19064;47.912;12.308;2023-08-24T02:14:50;20.60;99.90
32660;DHT22;19064;47.912;12.308;2023-08-24T02:17:17;20.50;99.90
32660;DHT22;19064;47.912;12.308;2023-08-24T02:19:45;20.40;99.90
32660;DHT22;19064;47.912;12.308;2023-08-24T02:22:13;20.40;99.90
32660;DHT22;19064;47.912;12.308;2023-08-24T02:24:39;20.40;99.90
32660;DHT22;19064;47.912;12.308;2023-08-24T02:27:06;20.40;99.90
32660;DHT22;19064;47.912;12.308;2023-08-24T02:29:34;20.50;99.90
32660;DHT22;19064;47.912;12.308;2023-08-24T02:32:01;20.50;99.90
32660;DHT22;19064;47.912;12.308;2023-08-24T02:34:28;20.70;99.90
32660;DHT22;19064;47.912;12.308;2023-08-24T02:36:56;20.80;99.90
32660;DHT22;19064;47.912;12.308;2023-08-24T02:39:23;20.90;99.90
32660;DHT22;19064;47.912;12.308;2023-08-24T02:41:50;20.90;99.90
32660;DHT22;19064;47.912;12.308;2023-08-24T02:44:17;20.90;99.90
32660;DHT22;19064;47.912;12.308;2023-08-24T02:46:44;20.80;99.90
32660;DHT22;19064;47.912;12.308;2023-08-24T02:49:11;20.70;99.90
32660;DHT22;19064;47.912;12.308;2023-08-24T02:51:38;20.80;99.90
32660;DHT22;19064;47.912;12.308;2023-08-24T02:54:06;20.90;99.90
32660;DHT22;19064;47.912;12.308;2023-08-24T02:56:33;20.80;99.90
32660;DHT22;19064;47.912;12.308;2023-08-24T02:58:59;20.70;99.90
32660;DHT22;19064;47.912;12.308;2023-08-24T03:01:26;20.60;99.90
32660;DHT22;19064;47.912;12.308;2023-08-24T03:03:55;20.60;99.90
32660;DHT22;19064;47.912;12.308;2023-08-24T03:06:22;20.50;99.90
32660;DHT22;19064;47.912;12.308;2023-08-24T03:08:49;20.50;99.90
32660;DHT22;19064;47.912;12.308;2023-08-24T03:11:19;20.50;99.90
32660;DHT22;19064;47.912;12.308;2023-08-24T03:13:46;20.50;99.90
32660;DHT22;19064;47.912;12.308;2023-08-24T03:16:13;20.40;99.90
32660;DHT22;19064;47.912;12.308;2023-08-24T03:18:39;20.40;99.90
32660;DHT22;19064;47.912;12.308;2023-08-24T03:21:06;20.40;99.90
32660;DHT22;19064;47.912;12.308;2023-08-24T03:23:33;20.40;99.90
32660;DHT22;19064;47.912;12.308;2023-08-24T03:26:00;20.50;99.90
32660;DHT22;19064;47.912;12.308;2023-08-24T03:28:28;20.40;99.90
32660;DHT22;19064;47.912;12.308;2023-08-24T03:30:55;20.40;99.90
32660;DHT22;19064;47.912;12.308;2023-08-24T03:33:23;20.30;99.90
32660;DHT22;19064;47.912;12.308;2023-08-24T03:35:49;20.30;99.90
32660;DHT22;19064;47.912;12.308;2023-08-24T03:38:16;20.30;99.90
32660;DHT22;19064;47.912;12.308;2023-08-24T03:40:43;20.20;99.90
32660;DHT22;19064;47.912;12.308;2023-08-24T03:43:10;20.30;99.90
32660;DHT22;19064;47.912;12.308;2023-08-24T03:45:38;20.40;99.90
32660;DHT22;19064;47.912;12.308;2023-08-24T03:48:05;20.40;99.90
32660;DHT22;19064;47.912;12.308;2023-08-24T03:50:32;20.40;99.90
32660;DHT22;19064;47.912;12.308;2023-08-24T03:52:59;20.40;99.90
32660;DHT22;19064;47.912;12.308;2023-08-24T03:55:26;20.40;99.90
32660;DHT22;19064;47.912;12.308;2023-08-24T03:57:53;20.40;99.90
32660;DHT22;19064;47.912;12.308;2023-08-24T04:00:20;20.50;99.90
32660;DHT22;19064;47.912;12.308;2023-08-24T04:02:48;20.50;99.90
32660;DHT22;19064;47.912;12.308;2023-08-24T04:05:14;20.50;99.90
32660;DHT22;19064;47.912;12.308;2023-08-24T04:07:41;20.40;99.90
32660;DHT22;19064;47.912;12.308;2023-08-24T04:10:08;20.30;99.90
32660;DHT22;19064;47.912;12.308;2023-08-24T04:12:35;20.30;99.90
32660;DHT22;19064;47.912;12.308;2023-08-24T04:15:03;20.40;99.90
32660;DHT22;19064;47.912;12.308;2023-08-24T04:17:31;20.40;99.90
32660;DHT22;19064;47.912;12.308;2023-08-24T04:19:59;20.50;99.90
32660;DHT22;19064;47.912;12.308;2023-08-24T04:22:26;20.50;99.90
32660;DHT22;19064;47.912;12.308;2023-08-24T04:24:53;20.60;99.90
32660;DHT22;19064;47.912;12.308;2023-08-24T04:27:19;20.60;99.90
32660;DHT22;19064;47.912;12.308;2023-08-24T04:29:47;20.50;99.90
32660;DHT22;19064;47.912;12.308;2023-08-24T04:32:15;20.50;99.90
32660;DHT22;19064;47.912;12.308;2023-08-24T04:34:42;20.40;99.90
32660;DHT22;19064;47.912;12.308;2023-08-24T04:37:10;20.30;99.90
32660;DHT22;19064;47.912;12.308;2023-08-24T04:39:36;20.40;99.90
32660;DHT22;19064;47.912;12.308;2023-08-24T04:42:04;20.40;99.90
32660;DHT22;19064;47.912;12.308;2023-08-24T04:44:31;20.40;99.90
32660;DHT22;19064;47.912;12.308;2023-08-24T04:46:58;20.50;99.90
32660;DHT22;19064;47.912;12.308;2023-08-24T04:49:25;20.60;99.90
32660;DHT22;19064;47.912;12.308;2023-08-24T04:51:51;20.70;99.90
32660;DHT22;19064;47.912;12.308;2023-08-24T04:54:20;20.60;99.90
32660;DHT22;19064;47.912;12.308;2023-08-24T04:56:47;20.70;99.90
32660;DHT22;19064;47.912;12.308;2023-08-24T04:59:14;20.70;99.90
32660;DHT22;19064;47.912;12.308;2023-08-24T05:01:41;20.80;99.90
32660;DHT22;19064;47.912;12.308;2023-08-24T05:04:08;20.80;99.90
32660;DHT22;19064;47.912;12.308;2023-08-24T05:06:34;20.80;99.90
32660;DHT22;19064;47.912;12.308;2023-08-24T05:09:01;20.80;99.90
32660;DHT22;19064;47.912;12.308;2023-08-24T05:11:29;20.70;99.90
32660;DHT22;19064;47.912;12.308;2023-08-24T05:13:56;20.60;99.90
32660;DHT22;19064;47.912;12.308;2023-08-24T05:16:23;20.80;99.90
32660;DHT22;19064;47.912;12.308;2023-08-24T05:18:50;20.80;99.90
32660;DHT22;19064;47.912;12.308;2023-08-24T05:21:17;20.90;99.90
32660;DHT22;19064;47.912;12.308;2023-08-24T05:23:43;21.00;99.90
32660;DHT22;19064;47.912;12.308;2023-08-24T05:26:10;20.90;99.90
32660;DHT22;19064;47.912;12.308;2023-08-24T05:28:38;20.90;99.90
32660;DHT22;19064;47.912;12.308;2023-08-24T05:31:05;21.00;99.90
32660;DHT22;19064;47.912;12.308;2023-08-24T05:33:32;21.00;99.90
32660;DHT22;19064;47.912;12.308;2023-08-24T05:35:58;21.10;99.90
32660;DHT22;19064;47.912;12.308;2023-08-24T05:38:25;21.10;99.90
32660;DHT22;19064;47.912;12.308;2023-08-24T05:40:52;21.10;99.90
32660;DHT22;19064;47.912;12.308;2023-08-24T05:43:19;21.10;99.90
32660;DHT22;19064;47.912;12.308;2023-08-24T05:45:48;21.20;99.90
32660;DHT22;19064;47.912;12.308;2023-08-24T05:48:16;21.20;99.90
32660;DHT22;19064;47.912;12.308;2023-08-24T05:50:43;21.30;99.90
32660;DHT22;19064;47.912;12.308;2023-08-24T05:53:10;21.30;99.90
32660;DHT22;19064;47.912;12.308;2023-08-24T05:55:37;21.30;99.90
32660;DHT22;19064;47.912;12.308;2023-08-24T05:58:04;21.40;99.90
32660;DHT22;19064;47.912;12.308;2023-08-24T06:00:31;21.40;99.90
32660;DHT22;19064;47.912;12.308;2023-08-24T06:03:00;21.60;99.90
32660;DHT22;19064;47.912;12.308;2023-08-24T06:05:26;21.70;99.90
32660;DHT22;19064;47.912;12.308;2023-08-24T06:07:53;21.70;99.90
32660;DHT22;19064;47.912;12.308;2023-08-24T06:10:20;21.80;99.90
32660;DHT22;19064;47.912;12.308;2023-08-24T06:12:49;21.80;99.90
32660;DHT22;19064;47.912;12.308;2023-08-24T06:15:18;21.80;99.90
32660;DHT22;19064;47.912;12.308;2023-08-24T06:17:49;21.80;99.90
32660;DHT22;19064;47.912;12.308;2023-08-24T06:20:18;21.90;99.90
32660;DHT22;19064;47.912;12.308;2023-08-24T06:22:45;21.90;99.90
32660;DHT22;19064;47.912;12.308;2023-08-24T06:25:12;22.10;99.90
32660;DHT22;19064;47.912;12.308;2023-08-24T06:27:40;22.10;99.90
32660;DHT22;19064;47.912;12.308;2023-08-24T06:30:07;22.20;99.90
32660;DHT22;19064;47.912;12.308;2023-08-24T06:32:34;22.20;99.90
32660;DHT22;19064;47.912;12.308;2023-08-24T06:35:00;22.20;99.90
32660;DHT22;19064;47.912;12.308;2023-08-24T06:37:31;22.20;99.90
32660;DHT22;19064;47.912;12.308;2023-08-24T06:39:58;22.30;99.90
32660;DHT22;19064;47.912;12.308;2023-08-24T06:42:24;22.40;99.90
32660;DHT22;19064;47.912;12.308;2023-08-24T06:44:51;22.50;99.90
32660;DHT22;19064;47.912;12.308;2023-08-24T06:47:19;22.60;99.90
32660;DHT22;19064;47.912;12.308;2023-08-24T06:49:46;22.70;99.90
32660;DHT22;19064;47.912;12.308;2023-08-24T06:52:13;22.70;99.90
32660;DHT22;19064;47.912;12.308;2023-08-24T06:54:41;22.70;99.90
32660;DHT22;19064;47.912;12.308;2023-08-24T06:57:08;22.80;99.90
32660;DHT22;19064;47.912;12.308;2023-08-24T06:59:35;22.90;99.90
32660;DHT22;19064;47.912;12.308;2023-08-24T07:02:01;23.00;99.90
32660;DHT22;19064;47.912;12.308;2023-08-24T07:04:29;23.10;99.90
32660;DHT22;19064;47.912;12.308;2023-08-24T07:06:56;23.20;99.90
32660;DHT22;19064;47.912;12.308;2023-08-24T07:09:23;23.30;99.90
32660;DHT22;19064;47.912;12.308;2023-08-24T07:11:52;23.40;99.90
32660;DHT22;19064;47.912;12.308;2023-08-24T07:14:19;23.40;99.90
32660;DHT22;19064;47.912;12.308;2023-08-24T07:16:46;23.40;99.90
32660;DHT22;19064;47.912;12.308;2023-08-24T07:19:13;23.50;99.90
32660;DHT22;19064;47.912;12.308;2023-08-24T07:21:40;23.50;99.90
32660;DHT22;19064;47.912;12.308;2023-08-24T07:24:06;23.60;99.90
32660;DHT22;19064;47.912;12.308;2023-08-24T07:26:33;23.70;99.90
32660;DHT22;19064;47.912;12.308;2023-08-24T07:29:01;23.70;99.90
32660;DHT22;19064;47.912;12.308;2023-08-24T07:31:28;23.80;99.90
32660;DHT22;19064;47.912;12.308;2023-08-24T07:33:55;23.90;99.90
32660;DHT22;19064;47.912;12.308;2023-08-24T07:36:22;24.00;99.90
32660;DHT22;19064;47.912;12.308;2023-08-24T07:38:48;24.10;99.90
32660;DHT22;19064;47.912;12.308;2023-08-24T07:41:17;24.20;99.90
32660;DHT22;19064;47.912;12.308;2023-08-24T07:43:47;24.20;99.90
32660;DHT22;19064;47.912;12.308;2023-08-24T07:46:15;24.30;99.90
32660;DHT22;19064;47.912;12.308;2023-08-24T07:48:42;24.40;99.90
32660;DHT22;19064;47.912;12.308;2023-08-24T07:51:09;24.50;99.90
32660;DHT22;19064;47.912;12.308;2023-08-24T07:53:36;24.50;99.90
32660;DHT22;19064;47.912;12.308;2023-08-24T07:56:03;24.70;99.90
32660;DHT22;19064;47.912;12.308;2023-08-24T07:58:30;24.70;99.90
32660;DHT22;19064;47.912;12.308;2023-08-24T08:00:58;24.80;99.90
32660;DHT22;19064;47.912;12.308;2023-08-24T08:03:26;24.90;99.90
32660;DHT22;19064;47.912;12.308;2023-08-24T08:05:55;25.00;99.90
32660;DHT22;19064;47.912;12.308;2023-08-24T08:08:24;25.10;99.90
32660;DHT22;19064;47.912;12.308;2023-08-24T08:10:58;25.10;99.90
32660;DHT22;19064;47.912;12.308;2023-08-24T08:13:28;25.20;99.90
32660;DHT22;19064;47.912;12.308;2023-08-24T08:16:00;25.30;99.90
32660;DHT22;19064;47.912;12.308;2023-08-24T08:18:34;25.40;99.90
32660;DHT22;19064;47.912;12.308;2023-08-24T08:21:01;25.40;99.90
32660;DHT22;19064;47.912;12.308;2023-08-24T08:23:29;25.50;99.90
32660;DHT22;19064;47.912;12.308;2023-08-24T08:25:56;25.60;99.90
32660;DHT22;19064;47.912;12.308;2023-08-24T08:28:23;25.70;99.90
32660;DHT22;19064;47.912;12.308;2023-08-24T08:30:50;25.70;99.90
32660;DHT22;19064;47.912;12.308;2023-08-24T08:33:17;25.90;99.90
32660;DHT22;19064;47.912;12.308;2023-08-24T08:35:46;25.90;99.90
32660;DHT22;19064;47.912;12.308;2023-08-24T08:38:13;26.00;99.90
32660;DHT22;19064;47.912;12.308;2023-08-24T08:40:40;26.10;99.90
32660;DHT22;19064;47.912;12.308;2023-08-24T08:43:07;26.20;99.90
32660;DHT22;19064;47.912;12.308;2023-08-24T08:45:34;26.20;99.90
32660;DHT22;19064;47.912;12.308;2023-08-24T08:48:02;26.30;99.90
32660;DHT22;19064;47.912;12.308;2023-08-24T08:50:32;26.40;99.90
32660;DHT22;19064;47.912;12.308;2023-08-24T08:53:02;26.50;99.90
32660;DHT22;19064;47.912;12.308;2023-08-24T08:55:31;26.60;99.90
32660;DHT22;19064;47.912;12.308;2023-08-24T08:57:58;26.70;99.90
32660;DHT22;19064;47.912;12.308;2023-08-24T09:00:29;26.70;99.90
32660;DHT22;19064;47.912;12.308;2023-08-24T09:02:58;26.80;99.90
32660;DHT22;19064;47.912;12.308;2023-08-24T09:05:26;26.80;99.90
32660;DHT22;19064;47.912;12.308;2023-08-24T09:07:54;26.80;99.90
32660;DHT22;19064;47.912;12.308;2023-08-24T09:10:23;26.80;99.90
32660;DHT22;19064;47.912;12.308;2023-08-24T09:12:50;26.90;99.90
32660;DHT22;19064;47.912;12.308;2023-08-24T09:15:24;27.00;99.90
32660;DHT22;19064;47.912;12.308;2023-08-24T09:17:51;27.00;99.90
32660;DHT22;19064;47.912;12.308;2023-08-24T09:20:18;27.10;99.90
32660;DHT22;19064;47.912;12.308;2023-08-24T09:22:46;27.20;99.90
32660;DHT22;19064;47.912;12.308;2023-08-24T09:25:13;27.20;99.90
32660;DHT22;19064;47.912;12.308;2023-08-24T09:27:41;27.30;99.90
32660;DHT22;19064;47.912;12.308;2023-08-24T09:30:11;27.40;99.90
32660;DHT22;19064;47.912;12.308;2023-08-24T09:32:38;27.50;99.90
32660;DHT22;19064;47.912;12.308;2023-08-24T09:35:08;27.60;99.90
32660;DHT22;19064;47.912;12.308;2023-08-24T09:37:36;27.60;99.90
32660;DHT22;19064;47.912;12.308;2023-08-24T09:40:05;27.60;99.90
32660;DHT22;19064;47.912;12.308;2023-08-24T09:42:37;27.70;99.90
32660;DHT22;19064;47.912;12.308;2023-08-24T09:45:10;27.80;99.90
32660;DHT22;19064;47.912;12.308;2023-08-24T09:47:38;27.80;99.90
32660;DHT22;19064;47.912;12.308;2023-08-24T09:50:06;28.00;99.90
32660;DHT22;19064;47.912;12.308;2023-08-24T09:52:34;28.10;99.90
32660;DHT22;19064;47.912;12.308;2023-08-24T09:55:03;28.10;99.90
32660;DHT22;19064;47.912;12.308;2023-08-24T09:57:34;28.10;99.90
32660;DHT22;19064;47.912;12.308;2023-08-24T10:00:07;28.20;99.90
32660;DHT22;19064;47.912;12.308;2023-08-24T10:02:45;28.20;99.90
32660;DHT22;19064;47.912;12.308;2023-08-24T10:05:14;28.30;99.90
32660;DHT22;19064;47.912;12.308;2023-08-24T10:07:48;28.10;99.90
32660;DHT22;19064;47.912;12.308;2023-08-24T10:10:17;28.20;99.90
32660;DHT22;19064;47.912;12.308;2023-08-24T10:12:52;28.20;99.90
32660;DHT22;19064;47.912;12.308;2023-08-24T10:15:24;28.30;99.90
32660;DHT22;19064;47.912;12.308;2023-08-24T10:17:53;28.30;99.90
32660;DHT22;19064;47.912;12.308;2023-08-24T10:20:22;28.40;99.90
32660;DHT22;19064;47.912;12.308;2023-08-24T10:22:50;28.40;99.90
32660;DHT22;19064;47.912;12.308;2023-08-24T10:25:18;28.50;99.90
32660;DHT22;19064;47.912;12.308;2023-08-24T10:27:46;28.60;99.90
32660;DHT22;19064;47.912;12.308;2023-08-24T10:30:16;28.60;99.90
32660;DHT22;19064;47.912;12.308;2023-08-24T10:32:47;28.70;99.90
32660;DHT22;19064;47.912;12.308;2023-08-24T10:35:19;28.70;99.90
32660;DHT22;19064;47.912;12.308;2023-08-24T10:37:46;28.80;99.90
32660;DHT22;19064;47.912;12.308;2023-08-24T10:40:13;28.90;99.90
32660;DHT22;19064;47.912;12.308;2023-08-24T10:42:44;28.90;99.90
32660;DHT22;19064;47.912;12.308;2023-08-24T10:45:13;28.90;99.90
32660;DHT22;19064;47.912;12.308;2023-08-24T10:47:44;29.10;99.90
32660;DHT22;19064;47.912;12.308;2023-08-24T10:50:14;29.10;99.90
32660;DHT22;19064;47.912;12.308;2023-08-24T10:52:43;29.10;99.90
32660;DHT22;19064;47.912;12.308;2023-08-24T10:55:26;29.20;99.90
32660;DHT22;19064;47.912;12.308;2023-08-24T10:57:55;29.10;99.90
32660;DHT22;19064;47.912;12.308;2023-08-24T11:00:24;29.20;99.90
32660;DHT22;19064;47.912;12.308;2023-08-24T11:02:52;29.30;99.90
32660;DHT22;19064;47.912;12.308;2023-08-24T11:05:27;29.40;99.90
32660;DHT22;19064;47.912;12.308;2023-08-24T11:07:57;29.40;99.90
32660;DHT22;19064;47.912;12.308;2023-08-24T11:10:30;29.30;99.90
32660;DHT22;19064;47.912;12.308;2023-08-24T11:13:09;29.30;99.90
32660;DHT22;19064;47.912;12.308;2023-08-24T11:15:40;29.40;99.90
32660;DHT22;19064;47.912;12.308;2023-08-24T11:27:35;29.50;99.90
32660;DHT22;19064;47.912;12.308;2023-08-24T11:30:16;29.50;99.90
32660;DHT22;19064;47.912;12.308;2023-08-24T11:32:57;29.40;99.90
32660;DHT22;19064;47.912;12.308;2023-08-24T11:35:40;29.40;99.90
32660;DHT22;19064;47.912;12.308;2023-08-24T11:38:22;29.40;99.90
32660;DHT22;19064;47.912;12.308;2023-08-24T11:41:11;29.50;99.90
32660;DHT22;19064;47.912;12.308;2023-08-24T11:44:00;29.40;99.90
32660;DHT22;19064;47.912;12.308;2023-08-24T11:46:29;29.30;99.90
32660;DHT22;19064;47.912;12.308;2023-08-24T11:48:57;29.30;99.90
32660;DHT22;19064;47.912;12.308;2023-08-24T11:51:24;29.40;99.90
32660;DHT22;19064;47.912;12.308;2023-08-24T11:53:51;29.40;99.90
32660;DHT22;19064;47.912;12.308;2023-08-24T11:56:18;29.40;99.90
32660;DHT22;19064;47.912;12.308;2023-08-24T11:58:49;29.40;99.90
32660;DHT22;19064;47.912;12.308;2023-08-24T12:01:18;29.40;99.90
32660;DHT22;19064;47.912;12.308;2023-08-24T12:03:45;29.40;99.90
32660;DHT22;19064;47.912;12.308;2023-08-24T12:06:13;29.40;99.90
32660;DHT22;19064;47.912;12.308;2023-08-24T12:18:19;29.70;99.90
32660;DHT22;19064;47.912;12.308;2023-08-24T12:20:46;29.60;99.90
32660;DHT22;19064;47.912;12.308;2023-08-24T12:23:15;29.70;99.90
32660;DHT22;19064;47.912;12.308;2023-08-24T12:25:43;29.80;99.90
32660;DHT22;19064;47.912;12.308;2023-08-24T12:28:11;29.80;99.90
32660;DHT22;19064;47.912;12.308;2023-08-24T12:30:46;29.80;99.90
32660;DHT22;19064;47.912;12.308;2023-08-24T12:33:25;29.80;99.90
32660;DHT22;19064;47.912;12.308;2023-08-24T12:35:53;29.80;99.90
32660;DHT22;19064;47.912;12.308;2023-08-24T12:38:21;29.90;99.90
32660;DHT22;19064;47.912;12.308;2023-08-24T12:40:48;29.90;99.90
32660;DHT22;19064;47.912;12.308;2023-08-24T12:43:15;29.90;99.90
32660;DHT22;19064;47.912;12.308;2023-08-24T12:45:42;30.00;99.90
32660;DHT22;19064;47.912;12.308;2023-08-24T12:48:10;30.00;99.90
32660;DHT22;19064;47.912;12.308;2023-08-24T12:50:39;30.00;99.90
32660;DHT22;19064;47.912;12.308;2023-08-24T12:53:07;30.00;99.90
32660;DHT22;19064;47.912;12.308;2023-08-24T12:55:36;30.00;99.90
32660;DHT22;19064;47.912;12.308;2023-08-24T12:58:04;30.10;99.90
32660;DHT22;19064;47.912;12.308;2023-08-24T13:00:31;30.10;99.90
32660;DHT22;19064;47.912;12.308;2023-08-24T13:02:59;30.20;99.90
32660;DHT22;19064;47.912;12.308;2023-08-24T13:05:25;30.20;99.90
32660;DHT22;19064;47.912;12.308;2023-08-24T13:07:54;30.20;99.90
32660;DHT22;19064;47.912;12.308;2023-08-24T13:10:21;30.20;99.90
32660;DHT22;19064;47.912;12.308;2023-08-24T13:12:48;30.20;99.90
32660;DHT22;19064;47.912;12.308;2023-08-24T13:15:15;30.30;99.90
32660;DHT22;19064;47.912;12.308;2023-08-24T13:17:43;30.30;99.90
32660;DHT22;19064;47.912;12.308;2023-08-24T13:20:10;30.30;99.90
32660;DHT22;19064;47.912;12.308;2023-08-24T13:22:37;30.40;99.90
32660;DHT22;19064;47.912;12.308;2023-08-24T13:25:07;30.40;99.90
32660;DHT22;19064;47.912;12.308;2023-08-24T13:27:34;30.40;99.90
32660;DHT22;19064;47.912;12.308;2023-08-24T13:30:01;30.40;99.90
32660;DHT22;19064;47.912;12.308;2023-08-24T13:32:29;30.40;99.90
32660;DHT22;19064;47.912;12.308;2023-08-24T13:34:56;30.40;99.90
32660;DHT22;19064;47.912;12.308;2023-08-24T13:37:23;30.40;99.90
32660;DHT22;19064;47.912;12.308;2023-08-24T13:39:51;30.30;99.90
32660;DHT22;19064;47.912;12.308;2023-08-24T13:42:19;30.30;99.90
32660;DHT22;19064;47.912;12.308;2023-08-24T13:44:47;30.30;99.90
32660;DHT22;19064;47.912;12.308;2023-08-24T13:47:15;30.30;99.90
32660;DHT22;19064;47.912;12.308;2023-08-24T13:49:42;30.30;99.90
32660;DHT22;19064;47.912;12.308;2023-08-24T13:52:10;30.40;99.90
32660;DHT22;19064;47.912;12.308;2023-08-24T13:54:38;30.40;99.90
32660;DHT22;19064;47.912;12.308;2023-08-24T13:57:06;30.40;99.90
32660;DHT22;19064;47.912;12.308;2023-08-24T13:59:35;30.40;99.90
32660;DHT22;19064;47.912;12.308;2023-08-24T14:02:04;30.40;99.90
32660;DHT22;19064;47.912;12.308;2023-08-24T14:04:32;30.40;99.90
32660;DHT22;19064;47.912;12.308;2023-08-24T14:06:59;30.40;99.90
32660;DHT22;19064;47.912;12.308;2023-08-24T14:09:25;30.40;99.90
32660;DHT22;19064;47.912;12.308;2023-08-24T14:11:52;30.40;99.90
32660;DHT22;19064;47.912;12.308;2023-08-24T14:14:19;30.30;99.90
32660;DHT22;19064;47.912;12.308;2023-08-24T14:16:53;30.30;99.90
32660;DHT22;19064;47.912;12.308;2023-08-24T14:19:21;30.30;99.90
32660;DHT22;19064;47.912;12.308;2023-08-24T14:21:48;30.20;99.90
32660;DHT22;19064;47.912;12.308;2023-08-24T14:24:16;30.20;99.90
32660;DHT22;19064;47.912;12.308;2023-08-24T14:26:42;30.30;99.90
32660;DHT22;19064;47.912;12.308;2023-08-24T14:29:13;30.30;99.90
32660;DHT22;19064;47.912;12.308;2023-08-24T14:31:40;30.30;99.90
32660;DHT22;19064;47.912;12.308;2023-08-24T14:34:10;30.30;99.90
32660;DHT22;19064;47.912;12.308;2023-08-24T14:36:36;30.30;99.90
32660;DHT22;19064;47.912;12.308;2023-08-24T14:39:04;30.30;99.90
32660;DHT22;19064;47.912;12.308;2023-08-24T14:41:32;30.30;99.90
32660;DHT22;19064;47.912;12.308;2023-08-24T14:44:00;30.30;99.90
32660;DHT22;19064;47.912;12.308;2023-08-24T14:46:28;30.30;99.90
32660;DHT22;19064;47.912;12.308;2023-08-24T14:48:56;30.30;99.90
32660;DHT22;19064;47.912;12.308;2023-08-24T14:51:26;30.30;99.90
32660;DHT22;19064;47.912;12.308;2023-08-24T14:53:54;30.30;99.90
32660;DHT22;19064;47.912;12.308;2023-08-24T14:56:21;30.30;99.90
32660;DHT22;19064;47.912;12.308;2023-08-24T14:58:49;30.20;99.90
32660;DHT22;19064;47.912;12.308;2023-08-24T15:01:17;30.20;99.90
32660;DHT22;19064;47.912;12.308;2023-08-24T15:03:45;30.10;99.90
32660;DHT22;19064;47.912;12.308;2023-08-24T15:06:13;30.10;99.90
32660;DHT22;19064;47.912;12.308;2023-08-24T15:08:43;30.10;99.90
32660;DHT22;19064;47.912;12.308;2023-08-24T15:11:13;30.10;99.90
32660;DHT22;19064;47.912;12.308;2023-08-24T15:13:44;30.20;99.90
32660;DHT22;19064;47.912;12.308;2023-08-24T15:16:11;30.10;99.90
32660;DHT22;19064;47.912;12.308;2023-08-24T15:18:39;30.10;99.90
32660;DHT22;19064;47.912;12.308;2023-08-24T15:21:07;30.10;99.90
32660;DHT22;19064;47.912;12.308;2023-08-24T15:23:35;30.10;99.90
32660;DHT22;19064;47.912;12.308;2023-08-24T15:26:04;30.10;99.90
32660;DHT22;19064;47.912;12.308;2023-08-24T15:28:36;30.00;99.90
32660;DHT22;19064;47.912;12.308;2023-08-24T15:31:04;30.10;99.90
32660;DHT22;19064;47.912;12.308;2023-08-24T15:33:32;30.10;99.90
32660;DHT22;19064;47.912;12.308;2023-08-24T15:36:00;30.10;99.90
32660;DHT22;19064;47.912;12.308;2023-08-24T15:38:28;30.10;99.90
32660;DHT22;19064;47.912;12.308;2023-08-24T15:40:57;30.00;99.90